sensor_id;sensor_type;location;lat;lon;timestamp;pressure;altitude;pressure_sealevel;temperature;humidity
10097;BME280;5087;42.662;23.466;2023-08-21T00:01:41;95681.56;;;19.06;100.00
10097;BME280;5087;42.662;23.466;2023-08-21T00:04:10;95704.72;;;19.05;100.00
10097;BME280;5087;42.662;23.466;2023-08-21T00:06:38;95703.34;;;18.95;100.00
10097;BME280;5087;42.662;23.466;2023-08-21T00:09:05;95709.13;;;18.90;100.00
10097;BME280;5087;42.662;23.466;2023-08-21T00:11:34;95706.47;;;18.93;100.00
10097;BME280;5087;42.662;23.466;2023-08-21T00:14:01;95700.81;;;18.86;100.00
10097;BME280;5087;42.662;23.466;2023-08-21T00:16:29;95709.69;;;18.95;100.00
10097;BME280;5087;42.662;23.466;2023-08-21T00:18:56;95704.59;;;19.17;100.00
10097;BME280;5087;42.662;23.466;2023-08-21T00:21:31;95686.22;;;19.02;100.00
10097;BME280;5087;42.662;23.466;2023-08-21T00:24:02;95671.56;;;18.78;100.00
10097;BME280;5087;42.662;23.466;2023-08-21T00:26:29;95698.63;;;18.76;100.00
10097;BME280;5087;42.662;23.466;2023-08-21T00:28:56;95702.53;;;18.55;100.00
10097;BME280;5087;42.662;23.466;2023-08-21T00:31:25;95670.41;;;18.40;100.00
10097;BME280;5087;42.662;23.466;2023-08-21T00:33:52;95699.44;;;18.21;100.00
10097;BME280;5087;42.662;23.466;2023-08-21T00:36:20;95702.63;;;18.23;100.00
10097;BME280;5087;42.662;23.466;2023-08-21T00:38:48;95654.16;;;17.63;100.00
10097;BME280;5087;42.662;23.466;2023-08-21T00:41:16;95712.78;;;17.87;100.00
10097;BME280;5087;42.662;23.466;2023-08-21T00:43:43;95708.34;;;17.66;100.00
10097;BME280;5087;42.662;23.466;2023-08-21T00:46:11;95701.97;;;17.62;100.00
10097;BME280;5087;42.662;23.466;2023-08-21T00:48:38;95705.78;;;17.58;100.00
10097;BME280;5087;42.662;23.466;2023-08-21T00:51:06;95723.94;;;17.62;100.00
10097;BME280;5087;42.662;23.466;2023-08-21T00:53:38;95726.94;;;17.57;100.00
10097;BME280;5087;42.662;23.466;2023-08-21T00:56:12;95727.19;;;17.52;100.00
10097;BME280;5087;42.662;23.466;2023-08-21T00:58:40;95719.59;;;17.45;100.00
10097;BME280;5087;42.662;23.466;2023-08-21T01:01:08;95727.91;;;17.49;100.00
10097;BME280;5087;42.662;23.466;2023-08-21T01:03:36;95723.84;;;17.43;100.00
10097;BME280;5087;42.662;23.466;2023-08-21T01:06:04;95719.50;;;17.42;100.00
10097;BME280;5087;42.662;23.466;2023-08-21T01:08:39;95702.03;;;17.18;100.00
10097;BME280;5087;42.662;23.466;2023-08-21T01:11:18;95729.66;;;17.41;100.00
10097;BME280;5087;42.662;23.466;2023-08-21T01:13:53;95709.88;;;17.03;100.00
10097;BME280;5087;42.662;23.466;2023-08-21T01:16:25;95729.91;;;17.20;100.00
10097;BME280;5087;42.662;23.466;2023-08-21T01:18:54;95729.16;;;17.07;100.00
10097;BME280;5087;42.662;23.466;2023-08-21T01:21:23;95698.00;;;16.99;100.00
10097;BME280;5087;42.662;23.466;2023-08-21T01:23:52;95729.41;;;17.02;100.00
10097;BME280;5087;42.662;23.466;2023-08-21T01:26:20;95714.91;;;17.01;100.00
10097;BME280;5087;42.662;23.466;2023-08-21T01:28:47;95722.25;;;16.97;100.00
10097;BME280;5087;42.662;23.466;2023-08-21T01:31:19;95723.03;;;16.98;100.00
10097;BME280;5087;42.662;23.466;2023-08-21T01:33:52;95692.34;;;16.80;100.00
10097;BME280;5087;42.662;23.466;2023-08-21T01:36:24;95726.22;;;17.00;100.00
10097;BME280;5087;42.662;23.466;2023-08-21T01:38:55;95721.09;;;16.86;100.00
10097;BME280;5087;42.662;23.466;2023-08-21T01:41:23;95705.16;;;16.75;100.00
10097;BME280;5087;42.662;23.466;2023-08-21T01:43:53;95723.84;;;16.86;100.00
10097;BME280;5087;42.662;23.466;2023-08-21T01:46:21;95732.97;;;16.90;100.00
10097;BME280;5087;42.662;23.466;2023-08-21T01:48:49;95730.84;;;16.83;100.00
10097;BME280;5087;42.662;23.466;2023-08-21T01:51:17;95742.16;;;16.82;100.00
10097;BME280;5087;42.662;23.466;2023-08-21T01:53:44;95729.59;;;16.81;100.00
10097;BME280;5087;42.662;23.466;2023-08-21T01:56:14;95712.03;;;16.69;100.00
10097;BME280;5087;42.662;23.466;2023-08-21T01:58:42;95701.53;;;16.59;100.00
10097;BME280;5087;42.662;23.466;2023-08-21T02:01:11;95736.44;;;16.74;100.00
10097;BME280;5087;42.662;23.466;2023-08-21T02:03:40;95731.66;;;16.71;100.00
10097;BME280;5087;42.662;23.466;2023-08-21T02:06:10;95723.59;;;16.63;100.00
10097;BME280;5087;42.662;23.466;2023-08-21T02:08:42;95735.34;;;16.63;100.00
10097;BME280;5087;42.662;23.466;2023-08-21T02:11:13;95698.84;;;16.46;100.00
10097;BME280;5087;42.662;23.466;2023-08-21T02:13:41;95722.94;;;16.53;100.00
10097;BME280;5087;42.662;23.466;2023-08-21T02:16:08;95730.38;;;16.40;100.00
10097;BME280;5087;42.662;23.466;2023-08-21T02:18:36;95730.31;;;16.24;100.00
10097;BME280;5087;42.662;23.466;2023-08-21T02:21:03;95732.25;;;16.11;100.00
10097;BME280;5087;42.662;23.466;2023-08-21T02:23:31;95735.91;;;16.03;100.00
10097;BME280;5087;42.662;23.466;2023-08-21T02:25:58;95712.31;;;15.86;100.00
10097;BME280;5087;42.662;23.466;2023-08-21T02:28:27;95716.25;;;15.76;100.00
10097;BME280;5087;42.662;23.466;2023-08-21T02:30:54;95695.59;;;15.66;100.00
10097;BME280;5087;42.662;23.466;2023-08-21T02:33:22;95721.50;;;15.81;100.00
10097;BME280;5087;42.662;23.466;2023-08-21T02:35:50;95711.47;;;15.73;100.00
10097;BME280;5087;42.662;23.466;2023-08-21T02:38:17;95680.34;;;15.53;100.00
10097;BME280;5087;42.662;23.466;2023-08-21T02:40:46;95695.97;;;15.65;100.00
10097;BME280;5087;42.662;23.466;2023-08-21T02:43:14;95698.69;;;15.65;100.00
10097;BME280;5087;42.662;23.466;2023-08-21T02:45:44;95699.13;;;15.55;100.00
10097;BME280;5087;42.662;23.466;2023-08-21T02:48:11;95717.16;;;15.68;100.00
10097;BME280;5087;42.662;23.466;2023-08-21T02:50:38;95734.38;;;15.81;100.00
10097;BME280;5087;42.662;23.466;2023-08-21T02:53:10;95724.56;;;15.67;100.00
10097;BME280;5087;42.662;23.466;2023-08-21T02:55:37;95733.81;;;15.63;100.00
10097;BME280;5087;42.662;23.466;2023-08-21T02:58:06;95741.91;;;15.59;100.00
10097;BME280;5087;42.662;23.466;2023-08-21T03:00:43;95736.53;;;15.50;100.00
10097;BME280;5087;42.662;23.466;2023-08-21T03:03:11;95725.34;;;15.43;100.00
10097;BME280;5087;42.662;23.466;2023-08-21T03:05:39;95733.56;;;15.56;100.00
10097;BME280;5087;42.662;23.466;2023-08-21T03:08:07;95737.56;;;15.58;100.00
10097;BME280;5087;42.662;23.466;2023-08-21T03:10:34;95742.25;;;15.58;100.00
10097;BME280;5087;42.662;23.466;2023-08-21T03:13:03;95756.38;;;15.60;100.00
10097;BME280;5087;42.662;23.466;2023-08-21T03:15:30;95737.91;;;15.57;100.00
10097;BME280;5087;42.662;23.466;2023-08-21T03:17:59;95738.16;;;15.64;100.00
10097;BME280;5087;42.662;23.466;2023-08-21T03:20:27;95723.88;;;15.58;100.00
10097;BME280;5087;42.662;23.466;2023-08-21T03:22:56;95737.59;;;15.71;100.00
10097;BME280;5087;42.662;23.466;2023-08-21T03:25:24;95751.06;;;15.88;100.00
10097;BME280;5087;42.662;23.466;2023-08-21T03:27:59;95735.19;;;15.81;100.00
10097;BME280;5087;42.662;23.466;2023-08-21T03:30:27;95758.72;;;16.07;100.00
10097;BME280;5087;42.662;23.466;2023-08-21T03:32:54;95750.19;;;16.09;100.00
10097;BME280;5087;42.662;23.466;2023-08-21T03:35:26;95738.19;;;16.01;100.00
10097;BME280;5087;42.662;23.466;2023-08-21T03:37:54;95750.50;;;16.20;100.00
10097;BME280;5087;42.662;23.466;2023-08-21T03:40:24;95750.97;;;16.09;100.00
10097;BME280;5087;42.662;23.466;2023-08-21T03:42:51;95724.03;;;15.99;100.00
10097;BME280;5087;42.662;23.466;2023-08-21T03:45:20;95742.19;;;16.16;100.00
10097;BME280;5087;42.662;23.466;2023-08-21T03:47:48;95751.19;;;16.17;100.00
10097;BME280;5087;42.662;23.466;2023-08-21T03:50:19;95735.44;;;16.13;100.00
10097;BME280;5087;42.662;23.466;2023-08-21T03:52:53;95749.69;;;16.32;100.00
10097;BME280;5087;42.662;23.466;2023-08-21T03:55:22;95753.47;;;16.14;100.00
10097;BME280;5087;42.662;23.466;2023-08-21T03:57:53;95719.56;;;15.94;100.00
10097;BME280;5087;42.662;23.466;2023-08-21T04:00:21;95750.06;;;16.05;100.00
10097;BME280;5087;42.662;23.466;2023-08-21T04:02:50;95754.16;;;16.11;100.00
10097;BME280;5087;42.662;23.466;2023-08-21T04:05:18;95740.13;;;16.13;100.00
10097;BME280;5087;42.662;23.466;2023-08-21T04:07:46;95743.44;;;16.19;100.00
10097;BME280;5087;42.662;23.466;2023-08-21T04:10:16;95721.09;;;16.04;100.00
10097;BME280;5087;42.662;23.466;2023-08-21T04:12:43;95763.72;;;16.42;100.00
10097;BME280;5087;42.662;23.466;2023-08-21T04:15:13;95767.09;;;16.52;100.00
10097;BME280;5087;42.662;23.466;2023-08-21T04:17:41;95763.47;;;16.48;100.00
10097;BME280;5087;42.662;23.466;2023-08-21T04:20:09;95732.19;;;16.36;100.00
10097;BME280;5087;42.662;23.466;2023-08-21T04:22:37;95761.63;;;16.64;100.00
10097;BME280;5087;42.662;23.466;2023-08-21T04:25:06;95768.00;;;16.68;100.00
10097;BME280;5087;42.662;23.466;2023-08-21T04:27:37;95763.38;;;16.44;100.00
10097;BME280;5087;42.662;23.466;2023-08-21T04:30:06;95770.00;;;16.43;100.00
10097;BME280;5087;42.662;23.466;2023-08-21T04:32:37;95769.91;;;16.27;100.00
10097;BME280;5087;42.662;23.466;2023-08-21T04:35:05;95774.00;;;16.33;100.00
10097;BME280;5087;42.662;23.466;2023-08-21T04:37:34;95762.59;;;16.31;100.00
10097;BME280;5087;42.662;23.466;2023-08-21T04:40:02;95771.94;;;16.42;100.00
10097;BME280;5087;42.662;23.466;2023-08-21T04:42:30;95745.69;;;16.41;100.00
10097;BME280;5087;42.662;23.466;2023-08-21T04:45:00;95778.81;;;16.24;100.00
10097;BME280;5087;42.662;23.466;2023-08-21T04:47:32;95765.06;;;16.36;100.00
10097;BME280;5087;42.662;23.466;2023-08-21T04:50:03;95781.91;;;16.75;100.00
10097;BME280;5087;42.662;23.466;2023-08-21T04:52:30;95767.81;;;16.89;100.00
10097;BME280;5087;42.662;23.466;2023-08-21T04:54:59;95774.50;;;16.76;100.00
10097;BME280;5087;42.662;23.466;2023-08-21T04:57:29;95785.22;;;16.81;100.00
10097;BME280;5087;42.662;23.466;2023-08-21T05:00:00;95729.97;;;16.67;100.00
10097;BME280;5087;42.662;23.466;2023-08-21T05:02:34;95785.84;;;17.31;100.00
10097;BME280;5087;42.662;23.466;2023-08-21T05:05:02;95792.59;;;17.34;100.00
10097;BME280;5087;42.662;23.466;2023-08-21T05:07:30;95788.00;;;17.38;100.00
10097;BME280;5087;42.662;23.466;2023-08-21T05:10:00;95787.06;;;17.62;100.00
10097;BME280;5087;42.662;23.466;2023-08-21T05:12:32;95783.13;;;18.08;100.00
10097;BME280;5087;42.662;23.466;2023-08-21T05:15:03;95763.00;;;18.19;100.00
10097;BME280;5087;42.662;23.466;2023-08-21T05:17:31;95782.94;;;18.32;100.00
10097;BME280;5087;42.662;23.466;2023-08-21T05:19:58;95786.31;;;18.61;100.00
10097;BME280;5087;42.662;23.466;2023-08-21T05:22:26;95797.03;;;18.66;100.00
10097;BME280;5087;42.662;23.466;2023-08-21T05:24:53;95758.97;;;18.33;100.00
10097;BME280;5087;42.662;23.466;2023-08-21T05:27:21;95783.03;;;18.91;100.00
10097;BME280;5087;42.662;23.466;2023-08-21T05:29:48;95786.72;;;19.58;100.00
10097;BME280;5087;42.662;23.466;2023-08-21T05:32:18;95767.06;;;20.02;100.00
10097;BME280;5087;42.662;23.466;2023-08-21T05:34:53;95777.97;;;20.18;100.00
10097;BME280;5087;42.662;23.466;2023-08-21T05:37:21;95776.38;;;20.71;100.00
10097;BME280;5087;42.662;23.466;2023-08-21T05:39:49;95787.38;;;20.98;100.00
10097;BME280;5087;42.662;23.466;2023-08-21T05:42:17;95770.47;;;20.99;100.00
10097;BME280;5087;42.662;23.466;2023-08-21T05:44:47;95787.75;;;20.96;100.00
10097;BME280;5087;42.662;23.466;2023-08-21T05:47:15;95782.00;;;21.43;100.00
10097;BME280;5087;42.662;23.466;2023-08-21T05:49:44;95781.16;;;21.73;100.00
10097;BME280;5087;42.662;23.466;2023-08-21T05:52:15;95785.31;;;21.97;100.00
10097;BME280;5087;42.662;23.466;2023-08-21T05:54:42;95742.97;;;21.82;100.00
10097;BME280;5087;42.662;23.466;2023-08-21T05:57:10;95753.19;;;22.26;100.00
10097;BME280;5087;42.662;23.466;2023-08-21T05:59:43;95763.25;;;22.49;100.00
10097;BME280;5087;42.662;23.466;2023-08-21T06:02:12;95783.84;;;22.55;100.00
10097;BME280;5087;42.662;23.466;2023-08-21T06:04:41;95781.63;;;22.83;100.00
10097;BME280;5087;42.662;23.466;2023-08-21T06:07:10;95776.16;;;22.93;100.00
10097;BME280;5087;42.662;23.466;2023-08-21T06:09:37;95736.47;;;22.64;100.00
10097;BME280;5087;42.662;23.466;2023-08-21T06:12:05;95765.09;;;22.97;100.00
10097;BME280;5087;42.662;23.466;2023-08-21T06:14:34;95770.84;;;23.41;100.00
10097;BME280;5087;42.662;23.466;2023-08-21T06:17:05;95767.03;;;24.07;100.00
10097;BME280;5087;42.662;23.466;2023-08-21T06:19:36;95782.44;;;24.55;100.00
10097;BME280;5087;42.662;23.466;2023-08-21T06:22:04;95755.06;;;24.82;100.00
10097;BME280;5087;42.662;23.466;2023-08-21T06:24:35;95730.97;;;23.96;100.00
10097;BME280;5087;42.662;23.466;2023-08-21T06:27:04;95771.56;;;23.23;100.00
10097;BME280;5087;42.662;23.466;2023-08-21T06:29:35;95779.91;;;23.27;100.00
10097;BME280;5087;42.662;23.466;2023-08-21T06:32:06;95777.25;;;23.70;100.00
10097;BME280;5087;42.662;23.466;2023-08-21T06:34:36;95778.09;;;24.36;100.00
10097;BME280;5087;42.662;23.466;2023-08-21T06:37:04;95777.97;;;25.15;100.00
10097;BME280;5087;42.662;23.466;2023-08-21T06:39:36;95780.06;;;24.64;100.00
10097;BME280;5087;42.662;23.466;2023-08-21T06:42:04;95780.84;;;24.90;100.00
10097;BME280;5087;42.662;23.466;2023-08-21T06:44:40;95743.84;;;25.11;100.00
10097;BME280;5087;42.662;23.466;2023-08-21T06:47:08;95782.47;;;24.26;100.00
10097;BME280;5087;42.662;23.466;2023-08-21T06:49:39;95782.06;;;24.63;100.00
10097;BME280;5087;42.662;23.466;2023-08-21T06:52:10;95782.44;;;24.80;100.00
10097;BME280;5087;42.662;23.466;2023-08-21T06:54:41;95778.91;;;24.29;100.00
10097;BME280;5087;42.662;23.466;2023-08-21T06:57:08;95775.72;;;24.59;100.00
10097;BME280;5087;42.662;23.466;2023-08-21T06:59:35;95785.22;;;24.62;100.00
10097;BME280;5087;42.662;23.466;2023-08-21T07:02:04;95759.09;;;24.38;100.00
10097;BME280;5087;42.662;23.466;2023-08-21T07:04:34;95767.59;;;25.26;100.00
10097;BME280;5087;42.662;23.466;2023-08-21T07:07:02;95774.13;;;24.69;100.00
10097;BME280;5087;42.662;23.466;2023-08-21T07:09:32;95781.44;;;25.44;100.00
10097;BME280;5087;42.662;23.466;2023-08-21T07:12:02;95777.53;;;26.02;100.00
10097;BME280;5087;42.662;23.466;2023-08-21T07:14:29;95758.00;;;26.16;100.00
10097;BME280;5087;42.662;23.466;2023-08-21T07:16:57;95773.53;;;25.36;100.00
10097;BME280;5087;42.662;23.466;2023-08-21T07:19:25;95769.66;;;25.89;100.00
10097;BME280;5087;42.662;23.466;2023-08-21T07:21:53;95745.31;;;25.41;100.00
10097;BME280;5087;42.662;23.466;2023-08-21T07:24:21;95771.56;;;25.40;100.00
10097;BME280;5087;42.662;23.466;2023-08-21T07:26:48;95763.09;;;25.62;100.00
10097;BME280;5087;42.662;23.466;2023-08-21T07:29:18;95754.94;;;26.45;100.00
10097;BME280;5087;42.662;23.466;2023-08-21T07:31:46;95740.44;;;26.23;97.25
10097;BME280;5087;42.662;23.466;2023-08-21T07:34:13;95750.19;;;26.42;100.00
10097;BME280;5087;42.662;23.466;2023-08-21T07:36:41;95766.25;;;27.11;95.25
10097;BME280;5087;42.662;23.466;2023-08-21T07:39:14;95762.81;;;27.30;92.40
10097;BME280;5087;42.662;23.466;2023-08-21T07:41:41;95756.72;;;27.70;86.28
10097;BME280;5087;42.662;23.466;2023-08-21T07:44:12;95753.22;;;28.45;82.06
10097;BME280;5087;42.662;23.466;2023-08-21T07:46:41;95736.28;;;28.99;78.88
10097;BME280;5087;42.662;23.466;2023-08-21T07:49:08;95746.22;;;29.20;76.18
10097;BME280;5087;42.662;23.466;2023-08-21T07:51:36;95740.78;;;29.13;75.98
10097;BME280;5087;42.662;23.466;2023-08-21T07:54:04;95732.81;;;29.12;74.48
10097;BME280;5087;42.662;23.466;2023-08-21T07:56:32;95743.72;;;28.62;75.08
10097;BME280;5087;42.662;23.466;2023-08-21T07:59:01;95746.84;;;28.88;76.23
10097;BME280;5087;42.662;23.466;2023-08-21T08:01:28;95737.53;;;28.74;75.57
10097;BME280;5087;42.662;23.466;2023-08-21T08:03:57;95737.66;;;30.21;71.36
10097;BME280;5087;42.662;23.466;2023-08-21T08:06:24;95740.88;;;30.20;67.64
10097;BME280;5087;42.662;23.466;2023-08-21T08:08:52;95730.06;;;30.84;65.96
10097;BME280;5087;42.662;23.466;2023-08-21T08:11:20;95719.16;;;30.57;63.39
10097;BME280;5087;42.662;23.466;2023-08-21T08:13:51;95711.44;;;30.44;61.73
10097;BME280;5087;42.662;23.466;2023-08-21T08:16:19;95728.69;;;30.59;62.02
10097;BME280;5087;42.662;23.466;2023-08-21T08:18:46;95697.13;;;31.01;59.47
10097;BME280;5087;42.662;23.466;2023-08-21T08:21:16;95700.53;;;31.77;58.26
10097;BME280;5087;42.662;23.466;2023-08-21T08:23:44;95718.81;;;31.95;59.41
10097;BME280;5087;42.662;23.466;2023-08-21T08:26:12;95725.44;;;32.01;58.11
10097;BME280;5087;42.662;23.466;2023-08-21T08:28:40;95714.16;;;32.53;55.52
10097;BME280;5087;42.662;23.466;2023-08-21T08:31:14;95689.91;;;32.20;55.82
10097;BME280;5087;42.662;23.466;2023-08-21T08:33:42;95700.81;;;32.31;55.15
10097;BME280;5087;42.662;23.466;2023-08-21T08:36:15;95692.50;;;32.97;54.83
10097;BME280;5087;42.662;23.466;2023-08-21T08:38:42;95694.09;;;33.21;53.10
10097;BME280;5087;42.662;23.466;2023-08-21T08:41:14;95698.78;;;33.24;51.74
10097;BME280;5087;42.662;23.466;2023-08-21T08:43:45;95701.59;;;32.44;51.79
10097;BME280;5087;42.662;23.466;2023-08-21T08:46:14;95694.22;;;32.25;53.69
10097;BME280;5087;42.662;23.466;2023-08-21T08:48:42;95704.91;;;31.10;54.69
10097;BME280;5087;42.662;23.466;2023-08-21T08:51:10;95691.16;;;31.29;55.35
10097;BME280;5087;42.662;23.466;2023-08-21T08:53:41;95670.88;;;30.95;54.99
10097;BME280;5087;42.662;23.466;2023-08-21T08:56:09;95694.00;;;32.06;53.62
10097;BME280;5087;42.662;23.466;2023-08-21T08:58:39;95684.41;;;32.77;52.35
10097;BME280;5087;42.662;23.466;2023-08-21T09:01:08;95659.53;;;31.28;53.31
10097;BME280;5087;42.662;23.466;2023-08-21T09:03:37;95683.00;;;32.60;52.97
10097;BME280;5087;42.662;23.466;2023-08-21T09:06:04;95696.34;;;32.08;50.83
10097;BME280;5087;42.662;23.466;2023-08-21T09:08:32;95671.72;;;32.95;50.90
10097;BME280;5087;42.662;23.466;2023-08-21T09:11:02;95688.50;;;32.63;50.13
10097;BME280;5087;42.662;23.466;2023-08-21T09:13:31;95652.19;;;33.23;48.53
10097;BME280;5087;42.662;23.466;2023-08-21T09:16:00;95672.16;;;33.38;46.43
10097;BME280;5087;42.662;23.466;2023-08-21T09:18:30;95664.59;;;33.03;46.64
10097;BME280;5087;42.662;23.466;2023-08-21T09:21:01;95655.88;;;33.10;46.81
10097;BME280;5087;42.662;23.466;2023-08-21T09:23:29;95675.56;;;33.64;47.72
10097;BME280;5087;42.662;23.466;2023-08-21T09:25:57;95666.38;;;32.88;47.05
10097;BME280;5087;42.662;23.466;2023-08-21T09:28:29;95674.03;;;31.78;47.90
10097;BME280;5087;42.662;23.466;2023-08-21T09:30:58;95662.47;;;31.08;49.83
10097;BME280;5087;42.662;23.466;2023-08-21T09:33:29;95639.19;;;32.14;47.18
10097;BME280;5087;42.662;23.466;2023-08-21T09:35:56;95640.31;;;32.74;45.59
10097;BME280;5087;42.662;23.466;2023-08-21T09:38:26;95621.66;;;33.34;44.48
10097;BME280;5087;42.662;23.466;2023-08-21T09:40:54;95653.53;;;33.09;43.21
10097;BME280;5087;42.662;23.466;2023-08-21T09:43:23;95659.31;;;31.61;45.69
10097;BME280;5087;42.662;23.466;2023-08-21T09:45:55;95653.91;;;32.05;45.25
10097;BME280;5087;42.662;23.466;2023-08-21T09:48:24;95656.38;;;32.03;46.09
10097;BME280;5087;42.662;23.466;2023-08-21T09:50:53;95657.72;;;31.21;48.18
10097;BME280;5087;42.662;23.466;2023-08-21T09:53:23;95651.22;;;31.89;46.75
10097;BME280;5087;42.662;23.466;2023-08-21T09:55:53;95649.31;;;31.21;47.41
10097;BME280;5087;42.662;23.466;2023-08-21T09:58:21;95639.00;;;31.18;48.41
10097;BME280;5087;42.662;23.466;2023-08-21T10:01:01;95639.06;;;32.18;47.65
10097;BME280;5087;42.662;23.466;2023-08-21T10:03:35;95630.25;;;33.08;45.32
10097;BME280;5087;42.662;23.466;2023-08-21T10:06:05;95627.66;;;33.96;43.52
10097;BME280;5087;42.662;23.466;2023-08-21T10:08:37;95628.66;;;33.07;44.68
10097;BME280;5087;42.662;23.466;2023-08-21T10:11:10;95621.66;;;32.80;45.71
10097;BME280;5087;42.662;23.466;2023-08-21T10:13:38;95629.41;;;32.98;44.89
10097;BME280;5087;42.662;23.466;2023-08-21T10:16:08;95628.13;;;32.33;44.92
10097;BME280;5087;42.662;23.466;2023-08-21T10:18:37;95603.66;;;31.47;46.67
10097;BME280;5087;42.662;23.466;2023-08-21T10:21:12;95608.19;;;32.05;46.01
10097;BME280;5087;42.662;23.466;2023-08-21T10:23:40;95614.03;;;33.12;45.29
10097;BME280;5087;42.662;23.466;2023-08-21T10:26:11;95599.09;;;32.49;45.34
10097;BME280;5087;42.662;23.466;2023-08-21T10:28:49;95611.00;;;32.40;45.01
10097;BME280;5087;42.662;23.466;2023-08-21T10:31:27;95608.97;;;32.05;45.15
10097;BME280;5087;42.662;23.466;2023-08-21T10:34:01;95610.13;;;32.43;44.50
10097;BME280;5087;42.662;23.466;2023-08-21T10:37:06;95555.06;;;33.31;44.01
10097;BME280;5087;42.662;23.466;2023-08-21T10:39:36;95575.66;;;33.28;41.86
10097;BME280;5087;42.662;23.466;2023-08-21T10:42:08;95586.84;;;34.09;42.77
10097;BME280;5087;42.662;23.466;2023-08-21T10:44:50;95574.00;;;33.40;43.55
10097;BME280;5087;42.662;23.466;2023-08-21T10:47:30;95587.78;;;32.40;44.72
10097;BME280;5087;42.662;23.466;2023-08-21T10:50:03;95583.91;;;32.11;45.59
10097;BME280;5087;42.662;23.466;2023-08-21T10:52:34;95585.75;;;32.05;44.94
10097;BME280;5087;42.662;23.466;2023-08-21T10:55:02;95585.34;;;32.73;44.22
10097;BME280;5087;42.662;23.466;2023-08-21T10:57:33;95565.56;;;34.08;43.21
10097;BME280;5087;42.662;23.466;2023-08-21T11:00:03;95572.91;;;33.37;42.66
10097;BME280;5087;42.662;23.466;2023-08-21T11:02:36;95574.56;;;32.94;43.44
10097;BME280;5087;42.662;23.466;2023-08-21T11:05:06;95571.28;;;32.73;40.65
10097;BME280;5087;42.662;23.466;2023-08-21T11:07:41;95569.81;;;33.54;40.63
10097;BME280;5087;42.662;23.466;2023-08-21T11:10:11;95565.00;;;32.25;41.09
10097;BME280;5087;42.662;23.466;2023-08-21T11:12:48;95559.94;;;32.77;42.00
10097;BME280;5087;42.662;23.466;2023-08-21T11:15:17;95518.44;;;32.36;41.33
10097;BME280;5087;42.662;23.466;2023-08-21T11:17:54;95561.88;;;32.45;40.16
10097;BME280;5087;42.662;23.466;2023-08-21T11:20:26;95544.59;;;33.00;40.38
10097;BME280;5087;42.662;23.466;2023-08-21T11:22:56;95550.78;;;33.26;40.43
10097;BME280;5087;42.662;23.466;2023-08-21T11:25:25;95555.38;;;33.33;40.69
10097;BME280;5087;42.662;23.466;2023-08-21T11:27:53;95563.59;;;32.87;40.07
10097;BME280;5087;42.662;23.466;2023-08-21T11:30:22;95542.63;;;33.10;39.09
10097;BME280;5087;42.662;23.466;2023-08-21T11:33:06;95544.19;;;33.20;39.54
10097;BME280;5087;42.662;23.466;2023-08-21T11:35:37;95551.16;;;32.97;39.49
10097;BME280;5087;42.662;23.466;2023-08-21T11:38:14;95521.44;;;32.42;40.53
10097;BME280;5087;42.662;23.466;2023-08-21T11:40:52;95542.28;;;32.32;39.60
10097;BME280;5087;42.662;23.466;2023-08-21T11:43:20;95539.63;;;33.04;40.00
10097;BME280;5087;42.662;23.466;2023-08-21T11:45:48;95538.81;;;32.72;39.20
10097;BME280;5087;42.662;23.466;2023-08-21T11:48:19;95535.28;;;32.81;38.99
10097;BME280;5087;42.662;23.466;2023-08-21T11:50:48;95536.75;;;32.95;39.51
10097;BME280;5087;42.662;23.466;2023-08-21T11:53:30;95515.16;;;33.73;37.94
10097;BME280;5087;42.662;23.466;2023-08-21T11:55:58;95526.66;;;33.48;37.74
10097;BME280;5087;42.662;23.466;2023-08-21T11:58:26;95527.50;;;32.85;39.61
10097;BME280;5087;42.662;23.466;2023-08-21T12:00:55;95536.91;;;32.69;39.44
10097;BME280;5087;42.662;23.466;2023-08-21T12:03:35;95518.97;;;32.44;39.21
10097;BME280;5087;42.662;23.466;2023-08-21T12:06:10;95514.56;;;32.88;38.83
10097;BME280;5087;42.662;23.466;2023-08-21T12:08:38;95505.66;;;32.89;39.27
10097;BME280;5087;42.662;23.466;2023-08-21T12:11:06;95505.16;;;32.81;38.11
10097;BME280;5087;42.662;23.466;2023-08-21T12:13:35;95526.72;;;32.85;39.20
10097;BME280;5087;42.662;23.466;2023-08-21T12:16:04;95503.22;;;32.25;40.09
10097;BME280;5087;42.662;23.466;2023-08-21T12:18:37;95518.84;;;31.91;40.72
10097;BME280;5087;42.662;23.466;2023-08-21T12:21:11;95512.19;;;32.32;39.85
10097;BME280;5087;42.662;23.466;2023-08-21T12:23:38;95501.63;;;32.68;40.19
10097;BME280;5087;42.662;23.466;2023-08-21T12:26:06;95510.81;;;32.91;39.64
10097;BME280;5087;42.662;23.466;2023-08-21T12:28:34;95500.63;;;32.62;38.98
10097;BME280;5087;42.662;23.466;2023-08-21T12:31:02;95513.03;;;32.74;39.89
10097;BME280;5087;42.662;23.466;2023-08-21T12:33:30;95513.97;;;33.02;40.54
10097;BME280;5087;42.662;23.466;2023-08-21T12:36:04;95506.34;;;33.12;39.21
10097;BME280;5087;42.662;23.466;2023-08-21T12:38:36;95492.22;;;32.62;38.12
10097;BME280;5087;42.662;23.466;2023-08-21T12:41:04;95475.72;;;32.73;38.85
10097;BME280;5087;42.662;23.466;2023-08-21T12:43:31;95502.78;;;33.11;39.00
10097;BME280;5087;42.662;23.466;2023-08-21T12:45:59;95487.06;;;32.60;37.90
10097;BME280;5087;42.662;23.466;2023-08-21T12:48:26;95488.06;;;32.44;38.64
10097;BME280;5087;42.662;23.466;2023-08-21T12:50:54;95471.03;;;33.02;39.60
10097;BME280;5087;42.662;23.466;2023-08-21T12:53:24;95494.91;;;32.97;38.08
10097;BME280;5087;42.662;23.466;2023-08-21T12:55:52;95499.13;;;32.70;39.41
10097;BME280;5087;42.662;23.466;2023-08-21T12:58:20;95458.59;;;32.80;39.20
10097;BME280;5087;42.662;23.466;2023-08-21T13:00:48;95488.06;;;33.07;38.41
10097;BME280;5087;42.662;23.466;2023-08-21T13:03:15;95489.91;;;33.01;37.91
10097;BME280;5087;42.662;23.466;2023-08-21T13:05:44;95482.28;;;33.70;38.77
10097;BME280;5087;42.662;23.466;2023-08-21T13:08:23;95472.59;;;32.71;38.86